| 4/27/2026 | PFG Investments LLC | 37,434 | $417K | 0.0% | +13.0% | 0.000% | |
| 4/22/2026 | Janney Montgomery Scott LLC | 45,296 | $505K | 0.0% | +10.3% | 0.000% | |
| 4/20/2026 | Breakwater Capital Group | 12,579 | $140K | 0.0% | -19.2% | 0.000% | |
| 2/18/2026 | NewEdge Advisors LLC | 11,001 | $124K | 0.0% | N/A | 0.000% | |
| 2/17/2026 | &PARTNERS | 13,094 | $147K | 0.0% | N/A | 0.000% | |
| 2/17/2026 | Royal Bank of Canada | 129,692 | $1.46M | 0.0% | -3.8% | 0.000% | |
| 2/13/2026 | Stifel Financial Corp | 11,987 | $135K | 0.0% | -7.7% | 0.000% | |
| 2/13/2026 | Wells Fargo & Company MN | 302,532 | $3.41M | 0.0% | -5.0% | 0.000% | |
| 2/12/2026 | Jane Street Group LLC | 13,037 | $147K | 0.0% | N/A | 0.000% | |
| 2/12/2026 | HRT Financial LP | 13,772 | $155K | 0.0% | N/A | 0.000% | |
Get the Latest News and Ratings for NAN and Related Stocks Enter your email address below to receive the latest news and analysts' ratings for Nuveen New York Quality Municipal Income Fund and its competitors with MarketBeat's FREE daily newsletter.
|
| 2/12/2026 | Commonwealth Equity Services LLC | 54,348 | $612K | 0.0% | -23.5% | 0.000% | |
| 2/12/2026 | Steward Partners Investment Advisory LLC | 10,000 | $113K | 0.0% | +11.1% | 0.000% | |
| 2/11/2026 | Janney Montgomery Scott LLC | 41,061 | $462K | 0.0% | +7.8% | 0.000% | |
| 2/11/2026 | LPL Financial LLC | 36,634 | $413K | 0.0% | +7.3% | 0.000% | |
| 2/10/2026 | Avestar Capital LLC | 31,084 | $350K | 0.0% | -16.2% | 0.000% | |
| 2/6/2026 | HighTower Advisors LLC | 196,236 | $2.21M | 0.0% | +0.7% | 0.000% | |
| 2/3/2026 | Indivisible Partners | 316,078 | $3.56M | 0.4% | N/A | 0.000% | |
| 1/30/2026 | GC Wealth Management RIA LLC | 55,058 | $620K | 0.0% | N/A | 0.000% | |
| 1/26/2026 | PFG Investments LLC | 33,118 | $373K | 0.0% | +16.1% | 0.000% | |
| 1/21/2026 | South Shore Capital Advisors | 17,335 | $195K | 0.1% | N/A | 0.000% | |
| 1/20/2026 | Westwood Wealth Management | 63,700 | $717K | 0.5% | N/A | 0.000% | |
| 1/14/2026 | Hennion & Walsh Asset Management Inc. | 320,552 | $3.61M | 0.1% | +83.8% | 0.000% | |
| 1/8/2026 | Wealth Enhancement Advisory Services LLC | 38,618 | $436K | 0.0% | +54.8% | 0.000% | |
| 11/17/2025 | Bank of America Corp DE | 504,065 | $5.76M | 0.0% | -3.3% | 0.000% | |
| 11/17/2025 | Ameriprise Financial Inc. | 12,950 | $148K | 0.0% | -6.5% | 0.000% | |
| 11/14/2025 | Olde Wealth Management LLC | 31,727 | $367K | 0.1% | N/A | 0.000% | |
| 11/12/2025 | Kingsview Wealth Management LLC | 13,450 | $154K | 0.0% | N/A | 0.000% | |
| 11/7/2025 | Avestar Capital LLC | 37,084 | $427K | 0.0% | +9.4% | 0.000% | |
| 11/7/2025 | HighTower Advisors LLC | 194,813 | $2.23M | 0.0% | -0.5% | 0.000% | |
| 11/6/2025 | Breakwater Capital Group | 15,093 | $173K | 0.0% | -79.2% | 0.000% | |
| 11/5/2025 | Envestnet Asset Management Inc. | 43,503 | $497K | 0.0% | +4.9% | 0.000% | |
| 10/31/2025 | PFG Investments LLC | 28,528 | $326K | 0.0% | +28.6% | 0.000% | |
| 10/29/2025 | Wealth Enhancement Advisory Services LLC | 24,953 | $285K | 0.0% | +67.1% | 0.000% | |
| 10/27/2025 | Ashton Thomas Securities LLC | 176,556 | $2.02M | 0.3% | N/A | 0.000% | |
| 10/22/2025 | Hennion & Walsh Asset Management Inc. | 174,370 | $1.99M | 0.1% | +89.6% | 0.000% | |
| 10/20/2025 | OMNI 360 Wealth Inc. | 28,469 | $325K | 0.2% | +4.4% | 0.000% | |
| 10/17/2025 | J. L. Bainbridge & Co. Inc. | 10,192 | $116K | 0.0% | N/A | 0.000% | |
| 8/15/2025 | Bank of America Corp DE | 521,432 | $5.95M | 0.0% | -2.0% | 0.000% | |
| 8/14/2025 | Raymond James Financial Inc. | 67,333 | $768K | 0.0% | -2.0% | 0.000% | |
| 8/13/2025 | Avestar Capital LLC | 33,884 | $389K | 0.0% | +59.2% | 0.000% | |
|
| 8/13/2025 | Cresset Asset Management LLC | 21,893 | $251K | 0.0% | N/A | 0.000% | |
| 8/13/2025 | Guggenheim Capital LLC | 714,149 | $8.15M | 0.1% | +4.9% | 0.000% | |
| 8/12/2025 | Horizon Kinetics Asset Management LLC | 39,769 | $454K | 0.0% | +4.3% | 0.000% | |
| 8/12/2025 | Lionshead Wealth Management LLC | 63,700 | $731K | 0.7% | N/A | 0.000% | |
| 8/1/2025 | Envestnet Asset Management Inc. | 41,459 | $473K | 0.0% | +36.8% | 0.000% | |
| 7/24/2025 | Mackay Shields LLC | 53,530 | $611K | 0.0% | -24.1% | 0.000% | |
| 7/23/2025 | Kingswood Wealth Advisors LLC | 13,000 | $148K | 0.0% | -75.0% | 0.000% | |
| 7/18/2025 | PFG Investments LLC | 22,178 | $253K | 0.0% | +8.1% | 0.000% | |
| 7/17/2025 | Janney Montgomery Scott LLC | 38,345 | $438K | 0.0% | -4.3% | 0.000% | |
| 7/10/2025 | Wealth Enhancement Advisory Services LLC | 14,930 | $171K | 0.0% | +41.3% | 0.000% | |
| 7/9/2025 | Breakwater Capital Group | 72,455 | $827K | 0.1% | +67.8% | 0.000% | |
| 7/7/2025 | OMNI 360 Wealth Inc. | 27,267 | $311K | 0.2% | +12.1% | 0.000% | |
| 5/15/2025 | Tortoise Investment Management LLC | 4,935 | $56K | 0.0% | -67.3% | 0.000% | |
| 5/13/2025 | HighTower Advisors LLC | 195,979 | $2.23M | 0.0% | +0.5% | 0.000% | |
| 4/30/2025 | OMNI 360 Wealth Inc. | 24,328 | $277K | 0.2% | -10.9% | 0.000% | |
| 4/21/2025 | Kingswood Wealth Advisors LLC | 52,000 | $594K | 0.0% | +100.0% | 0.000% | |
| 4/17/2025 | Grove Bank & Trust | 3,000 | $34K | 0.0% | N/A | 0.000% | |
| 4/17/2025 | Janney Montgomery Scott LLC | 40,075 | $456K | 0.0% | -2.6% | 0.000% | |
| 4/17/2025 | Atlas Private Wealth Advisors | 14,220 | $162K | 0.0% | N/A | 0.000% | |
| 4/16/2025 | Opal Wealth Advisors LLC | 12,008 | $137K | 0.0% | +13.5% | 0.000% | |
| 4/16/2025 | Wealth Enhancement Advisory Services LLC | 10,569 | $120K | 0.0% | N/A | 0.000% | |
| 4/10/2025 | Breakwater Capital Group | 43,174 | $491K | 0.1% | N/A | 0.000% | |
| 4/10/2025 | Hennion & Walsh Asset Management Inc. | 68,816 | $783K | 0.0% | -52.0% | 0.000% | |
| 2/17/2025 | Bank of America Corp DE | 786,198 | $8.96M | 0.0% | +7.3% | 0.000% | |
| 2/17/2025 | Ameriprise Financial Inc. | 14,510 | $165K | 0.0% | -12.1% | 0.000% | |
| 2/13/2025 | Guggenheim Capital LLC | 665,090 | $7.58M | 0.1% | +6.7% | 0.000% | |
| 2/13/2025 | Broyhill Asset Management | 10,000 | $114K | 0.1% | N/A | 0.000% | |
| 2/13/2025 | Raymond James Financial Inc. | 68,466 | $781K | 0.0% | N/A | 0.000% | |
| 2/13/2025 | Envestnet Asset Management Inc. | 17,839 | $203K | 0.0% | +17.2% | 0.000% | |
| 2/13/2025 | Wells Fargo & Company MN | 190,875 | $2.18M | 0.0% | -1.4% | 0.000% | |
| 2/11/2025 | LPL Financial LLC | 14,674 | $167K | 0.0% | N/A | 0.000% | |
| 2/10/2025 | Commonwealth Equity Services LLC | 53,997 | $616K | 0.0% | -3.7% | 0.000% | |
| 2/7/2025 | HighTower Advisors LLC | 195,071 | $2.22M | 0.0% | +0.7% | 0.000% | |
| 2/7/2025 | Tortoise Investment Management LLC | 15,078 | $172K | 0.0% | -72.5% | 0.000% | |
| 2/6/2025 | Raymond James Financial Inc. | 68,466 | $781K | 0.0% | N/A | 0.000% | |
| 2/3/2025 | Transcend Capital Advisors LLC | 246,398 | $2.81M | 0.2% | +2,364.0% | 0.000% | |
| 1/31/2025 | Robinson Capital Management LLC | 102,408 | $1.17M | 0.5% | -32.8% | 0.000% | |
| 1/31/2025 | Atria Wealth Solutions Inc. | 17,049 | $194K | 0.0% | N/A | 0.000% | |
| 1/28/2025 | Stephens Inc. AR | 14,226 | $162K | 0.0% | N/A | 0.000% | |
| 1/28/2025 | Seelaus Asset Management LLC | 11,306 | $129K | 0.1% | N/A | 0.000% | |
| 1/23/2025 | Ibex Wealth Advisors | 14,908 | $170K | 0.0% | N/A | 0.000% | |
| 1/22/2025 | Kingswood Wealth Advisors LLC | 26,000 | $296K | 0.0% | N/A | 0.000% | |
| 1/22/2025 | PFG Investments LLC | 20,482 | $233K | 0.0% | +66.3% | 0.000% | |
| 1/17/2025 | Janney Montgomery Scott LLC | 41,144 | $469K | 0.0% | +10.5% | 0.000% | |
| 1/15/2025 | Hennion & Walsh Asset Management Inc. | 143,291 | $1.63M | 0.1% | -61.7% | 0.000% | |
| 11/15/2024 | Stifel Financial Corp | 12,462 | $147K | 0.0% | +18.8% | 0.000% | |
| 11/15/2024 | Integrated Wealth Concepts LLC | 11,405 | $134K | 0.0% | -45.8% | 0.000% | |
| 11/15/2024 | HighTower Advisors LLC | 193,671 | $2.28M | 0.0% | +1.1% | 0.000% | |
| 11/13/2024 | Horizon Kinetics Asset Management LLC | 38,119 | $449K | 0.0% | +82.9% | 0.000% | |
| 10/24/2024 | PFG Investments LLC | 12,315 | $145K | 0.0% | N/A | 0.000% | |
|
| 10/23/2024 | Hennion & Walsh Asset Management Inc. | 374,373 | $4.41M | 0.2% | -25.9% | 0.000% | |
| 8/15/2024 | Logan Stone Capital LLC | 417,251 | $4.69M | 1.2% | -27.6% | 0.000% | |
| 8/2/2024 | Tortoise Investment Management LLC | 79,455 | $894K | 0.1% | -9.1% | 0.000% | |
| 7/31/2024 | Commonwealth Equity Services LLC | 59,624 | $671K | 0.0% | +8.1% | 0.000% | |
| 7/20/2024 | Hennion & Walsh Asset Management Inc. | 505,210 | $5.68M | 0.3% | -0.6% | 0.000% | |
| 7/19/2024 | OMNI 360 Wealth Inc. | 27,064 | $304K | 0.2% | +12.6% | 0.000% | |
| 7/12/2024 | Opal Wealth Advisors LLC | 10,900 | $123K | 0.0% | N/A | 0.000% | |
| 5/14/2024 | Robinson Capital Management LLC | 101,483 | $1.08M | 0.4% | +13.9% | 0.000% | |
| 5/14/2024 | Karpus Management Inc. | 957,236 | $10.48M | 0.3% | +0.6% | 0.000% | |
| 5/1/2024 | Janney Montgomery Scott LLC | 37,872 | $415K | 0.0% | +2.6% | 0.000% | |